createdAt,value
2018-08-19T00:03:35.601Z,8.23
2018-08-19T00:08:39.121Z,7.47
2018-08-19T00:13:42.640Z,7.80
2018-08-19T00:18:45.848Z,8.37
2018-08-19T00:23:49.461Z,7.90
2018-08-19T00:28:52.699Z,8.10
2018-08-19T00:33:55.960Z,8.00
2018-08-19T00:38:59.168Z,8.13
2018-08-19T00:44:02.404Z,8.50
2018-08-19T00:49:05.726Z,7.80
2018-08-19T00:54:08.981Z,7.47
2018-08-19T00:59:12.865Z,8.10
2018-08-19T01:04:16.190Z,6.40
2018-08-19T01:09:19.980Z,8.97
2018-08-19T01:14:23.627Z,7.63
2018-08-19T01:19:27.222Z,7.00
2018-08-19T01:24:30.420Z,8.53
2018-08-19T01:29:51.087Z,7.80
2018-08-19T01:34:54.370Z,7.10
2018-08-19T01:39:57.651Z,7.60
2018-08-19T01:45:02.007Z,6.33
2018-08-19T01:50:09.883Z,6.33
2018-08-19T01:55:14.198Z,7.37
2018-08-19T02:00:18.093Z,6.40
2018-08-19T02:05:21.668Z,6.60
2018-08-19T02:10:25.406Z,6.10
2018-08-19T02:15:29.652Z,6.03
2018-08-19T02:20:34.899Z,6.17
2018-08-19T02:25:41.126Z,5.97
2018-08-19T02:30:50.948Z,6.97
2018-08-19T02:36:00.567Z,6.03
2018-08-19T02:41:03.873Z,6.53
2018-08-19T02:46:07.287Z,5.40
2018-08-19T02:51:12.861Z,5.67
2018-08-19T02:56:16.812Z,5.97
2018-08-19T03:01:20.058Z,6.70
2018-08-19T03:06:23.276Z,6.20
2018-08-19T03:11:26.726Z,5.43
2018-08-19T03:16:29.945Z,5.73
2018-08-19T03:21:33.196Z,5.10
2018-08-19T03:26:36.434Z,6.43
2018-08-19T03:31:39.676Z,7.30
2018-08-19T03:36:43.038Z,7.93
2018-08-19T03:41:46.902Z,8.07
2018-08-19T03:46:50.177Z,8.30
2018-08-19T03:51:53.423Z,7.10
2018-08-19T03:56:56.647Z,7.30
2018-08-19T04:01:59.944Z,7.27
2018-08-19T04:07:03.824Z,6.63
2018-08-19T04:12:14.652Z,7.07
2018-08-19T04:17:17.918Z,6.40
2018-08-19T04:22:21.117Z,6.77
2018-08-19T04:27:24.310Z,6.70
2018-08-19T04:32:30.713Z,7.30
2018-08-19T04:37:33.887Z,6.87
2018-08-19T04:42:37.212Z,6.80
2018-08-19T04:47:40.529Z,6.83
2018-08-19T04:52:43.975Z,6.83
2018-08-19T04:57:48.410Z,6.30
2018-08-19T05:02:51.668Z,6.37
2018-08-19T05:07:54.978Z,6.20
2018-08-19T05:12:58.097Z,5.77
2018-08-19T05:18:01.336Z,5.83
2018-08-19T05:23:04.886Z,5.63
2018-08-19T05:28:08.200Z,5.53
2018-08-19T05:33:11.680Z,5.70
2018-08-19T05:38:14.874Z,5.67
2018-08-19T05:43:18.095Z,4.73
2018-08-19T05:48:21.378Z,5.50
2018-08-19T05:53:24.729Z,5.23
2018-08-19T05:58:28.168Z,4.80
2018-08-19T06:03:31.537Z,4.50
2018-08-19T06:08:34.808Z,4.50
2018-08-19T06:13:38.155Z,5.07
2018-08-19T06:18:41.534Z,4.57
2018-08-19T06:23:44.856Z,4.40
2018-08-19T06:28:48.120Z,5.00
2018-08-19T06:33:52.071Z,4.53
2018-08-19T06:38:55.400Z,4.73
2018-08-19T06:43:58.700Z,4.30
2018-08-19T06:49:06.152Z,4.30
2018-08-19T06:54:09.617Z,4.60
2018-08-19T06:59:12.860Z,4.13
2018-08-19T07:04:16.100Z,4.10
2018-08-19T07:09:19.387Z,4.43
2018-08-19T07:14:23.732Z,4.40
2018-08-19T07:19:27.730Z,4.00
2018-08-19T07:24:32.003Z,4.10
2018-08-19T07:29:35.223Z,4.50
2018-08-19T07:34:38.682Z,4.03
2018-08-19T07:39:47.504Z,4.13
2018-08-19T07:44:51.105Z,4.10
2018-08-19T07:49:54.529Z,4.30
2018-08-19T07:54:58.066Z,4.07
2018-08-19T08:00:01.413Z,3.80
2018-08-19T08:05:05.523Z,3.90
2018-08-19T08:10:08.917Z,3.63
2018-08-19T08:15:12.270Z,3.30
2018-08-19T08:20:15.586Z,3.80
2018-08-19T08:25:18.993Z,2.80
2018-08-19T08:30:22.602Z,2.50
2018-08-19T08:35:26.673Z,2.50
2018-08-19T08:40:29.934Z,2.70
2018-08-19T08:45:40.042Z,2.43
2018-08-19T08:50:43.341Z,121.03
2018-08-19T08:55:46.681Z,133.40
2018-08-19T09:00:50.021Z,74.90
2018-08-19T09:05:54.109Z,41.80
2018-08-19T09:10:59.876Z,28.80
2018-08-19T09:16:03.503Z,20.17
2018-08-19T09:21:06.900Z,15.00
2018-08-19T09:26:10.369Z,9.30
2018-08-19T09:31:13.754Z,7.47
2018-08-19T09:36:16.989Z,7.10
2018-08-19T09:41:20.367Z,6.50
2018-08-19T09:46:25.224Z,6.13
2018-08-19T09:51:28.667Z,6.00
2018-08-19T09:56:37.337Z,4.20
2018-08-19T10:01:41.185Z,4.10
2018-08-19T10:06:44.539Z,4.30
2018-08-19T10:11:48.824Z,3.37
2018-08-19T10:16:52.276Z,3.20
2018-08-19T10:21:55.541Z,3.00
2018-08-19T10:27:00.275Z,3.17
2018-08-19T10:32:04.309Z,2.60
2018-08-19T10:37:07.619Z,2.80
2018-08-19T10:42:20.138Z,3.07
2018-08-19T10:47:23.465Z,3.20
2018-08-19T10:52:28.164Z,2.80
2018-08-19T10:57:31.498Z,2.60
2018-08-19T11:02:34.966Z,2.20
2018-08-19T11:07:38.498Z,2.10
2018-08-19T11:12:41.813Z,2.57
2018-08-19T11:17:45.283Z,2.50
2018-08-19T11:22:48.548Z,2.80
2018-08-19T11:27:51.955Z,3.10
2018-08-19T11:32:56.256Z,2.27
2018-08-19T11:37:59.681Z,2.57
2018-08-19T11:43:02.987Z,2.73
2018-08-19T11:48:06.824Z,2.10
2018-08-19T11:53:10.118Z,2.97
2018-08-19T11:58:38.853Z,2.60
2018-08-19T12:03:55.527Z,2.40
2018-08-19T12:09:01.219Z,2.80
2018-08-19T12:14:07.300Z,3.17
2018-08-19T12:19:16.163Z,2.50
2018-08-19T12:24:38.413Z,2.70
2018-08-19T12:29:42.523Z,2.07
2018-08-19T12:34:48.390Z,2.40
2018-08-19T12:39:52.090Z,2.20
2018-08-19T12:45:01.906Z,2.63
2018-08-19T12:50:12.875Z,2.70
2018-08-19T12:55:16.428Z,2.50
2018-08-19T13:00:27.003Z,2.80
2018-08-19T13:05:30.677Z,2.80
2018-08-19T13:10:39.276Z,2.43
2018-08-19T13:15:42.525Z,2.83
2018-08-19T13:20:45.960Z,2.10
2018-08-19T13:25:49.222Z,2.40
2018-08-19T13:30:52.473Z,2.43
2018-08-19T13:35:56.205Z,2.30
2018-08-19T13:41:00.629Z,2.50
2018-08-19T13:46:04.178Z,2.37
2018-08-19T13:51:07.456Z,2.83
2018-08-19T13:56:11.422Z,3.37
2018-08-19T14:01:14.927Z,3.30
2018-08-19T14:06:18.392Z,3.30
2018-08-19T14:11:21.702Z,2.63
2018-08-19T14:16:25.061Z,3.00
2018-08-19T14:21:28.651Z,2.80
2018-08-19T14:26:32.968Z,2.90
2018-08-19T14:31:36.373Z,2.63
2018-08-19T14:36:39.647Z,2.43
2018-08-19T14:41:42.958Z,2.87
2018-08-19T14:46:46.700Z,2.90
2018-08-19T14:51:57.388Z,2.80
2018-08-19T14:57:00.764Z,2.97
2018-08-19T15:02:04.441Z,3.40
2018-08-19T15:07:07.914Z,3.60
2018-08-19T15:12:17.289Z,3.43
2018-08-19T15:17:21.160Z,3.23
2018-08-19T15:22:24.529Z,4.40
2018-08-19T15:27:27.926Z,4.13
2018-08-19T15:32:31.789Z,4.10
2018-08-19T15:37:34.744Z,3.57
2018-08-19T15:42:37.978Z,3.57
2018-08-19T15:47:41.824Z,3.80
2018-08-19T15:52:46.189Z,4.10
2018-08-19T15:57:49.483Z,4.30
2018-08-19T16:02:53.777Z,3.50
2018-08-19T16:07:57.076Z,3.80
2018-08-19T16:13:04.494Z,3.30
2018-08-19T16:18:08.649Z,3.53
2018-08-19T16:23:13.400Z,3.30
2018-08-19T16:28:16.778Z,3.47
2018-08-19T16:33:20.348Z,4.10
2018-08-19T16:38:24.137Z,3.17
2018-08-19T16:43:27.613Z,4.83
2018-08-19T16:48:31.023Z,3.33
2018-08-19T16:53:34.344Z,3.47
2018-08-19T16:58:38.554Z,3.30
2018-08-19T17:03:42.537Z,3.37
2018-08-19T17:08:46.311Z,3.70
2018-08-19T17:13:49.741Z,4.20
2018-08-19T17:18:53.601Z,3.80
2018-08-19T17:23:58.352Z,3.80
2018-08-19T17:29:06.936Z,2.93
2018-08-19T17:34:14.448Z,4.30
2018-08-19T17:39:20.121Z,3.87
2018-08-19T17:44:24.827Z,4.07
2018-08-19T17:49:29.730Z,5.73
2018-08-19T17:54:33.401Z,5.07
2018-08-19T17:59:37.676Z,5.00
2018-08-19T18:04:46.271Z,3.93
2018-08-19T18:09:55.071Z,3.20
2018-08-19T18:14:58.840Z,3.60
2018-08-19T18:20:16.370Z,4.00
2018-08-19T18:25:20.521Z,3.77
2018-08-19T18:30:27.012Z,4.27
2018-08-19T18:35:30.511Z,4.20
2018-08-19T18:40:34.357Z,3.60
2018-08-19T18:45:38.089Z,5.50
2018-08-19T18:50:42.082Z,6.70
2018-08-19T18:55:45.551Z,6.27
2018-08-19T19:00:54.434Z,5.60
2018-08-19T19:05:57.703Z,5.80
2018-08-19T19:11:06.010Z,6.13
2018-08-19T19:16:10.493Z,5.30
2018-08-19T19:21:13.798Z,5.77
2018-08-19T19:26:17.392Z,5.93
2018-08-19T19:31:21.052Z,7.17
2018-08-19T19:36:24.303Z,7.40
2018-08-19T19:41:35.748Z,9.40
2018-08-19T19:46:40.826Z,7.27
2018-08-19T19:51:48.833Z,13.07
2018-08-19T19:56:52.271Z,8.80
2018-08-19T20:01:56.143Z,9.30
2018-08-19T20:07:01.039Z,8.53
2018-08-19T20:12:06.033Z,11.60
2018-08-19T20:17:10.223Z,11.67
2018-08-19T20:22:15.816Z,9.90
2018-08-19T20:27:19.446Z,8.93
2018-08-19T20:32:23.393Z,8.93
2018-08-19T20:37:28.118Z,9.10
2018-08-19T20:42:31.591Z,10.83
2018-08-19T20:47:36.439Z,9.60
2018-08-19T20:52:44.880Z,11.30
2018-08-19T20:57:48.382Z,10.43
2018-08-19T21:02:51.717Z,10.13
2018-08-19T21:08:04.841Z,10.27
2018-08-19T21:13:10.760Z,10.43
2018-08-19T21:18:14.126Z,9.87
2018-08-19T21:23:19.117Z,8.00
2018-08-19T21:28:22.713Z,9.53
2018-08-19T21:33:26.057Z,11.70
2018-08-19T21:38:29.606Z,9.17
2018-08-19T21:43:32.861Z,9.07
2018-08-19T21:48:36.526Z,10.57
2018-08-19T21:53:40.826Z,11.50
2018-08-19T21:58:44.330Z,11.30
2018-08-19T22:03:48.685Z,10.70
2018-08-19T22:08:52.247Z,10.50
2018-08-19T22:13:55.669Z,8.40
2018-08-19T22:18:59.156Z,9.10
2018-08-19T22:24:02.700Z,9.40
2018-08-19T22:29:13.967Z,8.63
2018-08-19T22:34:17.336Z,8.80
2018-08-19T22:39:21.884Z,9.00
2018-08-19T22:44:25.336Z,8.70
2018-08-19T22:49:29.716Z,7.23
2018-08-19T22:54:32.987Z,8.17
2018-08-19T22:59:36.594Z,7.60
2018-08-19T23:04:40.128Z,8.97
2018-08-19T23:09:43.838Z,8.40
2018-08-19T23:14:58.584Z,7.60
2018-08-19T23:20:01.781Z,8.80
2018-08-19T23:25:05.389Z,6.97
2018-08-19T23:30:08.747Z,7.60
2018-08-19T23:35:11.967Z,7.00
2018-08-19T23:40:15.217Z,6.70
2018-08-19T23:45:18.510Z,6.00
2018-08-19T23:50:21.735Z,5.73
2018-08-19T23:55:25.239Z,5.73
